Pagina principale
METAR-TAF:

METAR-TAF

Aeroporti :

Aeroporto di Enfida-Hammamet

Hammamet, Tunisia

latitudine: 36-04-34N, longitudine: 10-26-19E, altezza: 6 m

Osservazione

Il bollettino è stato emesso 22 minuti fa, alle 19:00 UTC
Vento 9 kt da est/nord-est
Temperature 24°C
Umidità 83%
Pressione 1015 hPa
Visibilità 10 km o più
nessuna nube inferiore a 1500 m e nessun cumulonembo

METAR: DTNH 231900Z 06009KT CAVOK 24/21 Q1015 NOSIG

Ora: 20:22 (19:22 UTC)

Previsione

Il bollettino è stato emesso 2 ore e 22 minuti fa, alle 17:00 UTC
Previsione valida dal 23 alle 18 UTC al 24 alle 18 UTC
Vento 15 kt da est/nord-est
Visibilità 10 km o più
nessuna nube inferiore a 1500 m e nessun cumulonembo

TAF: DTNH 231700Z 2318/2418 07015KT CAVOK

Osservazioni e previsioni meteorologiche di più di 4000 aeroporti (messaggi METAR e TAF).

Le stazioni disponibili sono rappresentate dai dischi gialli e rossi sulla carta.

Puntare il mouse per vedere il nome della stazione.

Clicca sopra per visualizzare le osservazioni e previsioni meteorologiche.

Per cambiare la mappa : fare clic sui pulsanti verdi con una croce nera per ingrandire, il pulsante verde con un trattino per diminuire, o sulla freccia verde per le mappe adiacenti.


METAR-TAF: